Time;durP1;ratioP1;P1;durP2;ratioP2;P2;SDS_P1;SDS_P2;PMS_P1;PMS_P2;Temp;Humidity;BMP_temperature;BMP_pressure;BME280_temperature;BME280_humidity;BME280_pressure;Samples;Min_cycle;Max_cycle;Signal;HPM_P1;HPM_P2
2022/03/19 00:02:18;;;;;;;21.57;15.70;;;;;;;3.66;80.05;96535.88;5039769;28;20619;-65
2022/03/19 00:05:04;;;;;;;24.30;16.53;;;;;;;3.68;80.14;96527.44;5029643;28;20273;-65
2022/03/19 00:07:50;;;;;;;22.57;16.27;;;;;;;3.69;80.31;96540.56;5028752;28;20281;-64
2022/03/19 00:10:36;;;;;;;21.23;16.30;;;;;;;3.64;80.68;96538.22;5047162;28;20305;-65
2022/03/19 00:13:22;;;;;;;21.60;15.93;;;;;;;3.60;80.65;96550.13;5043486;28;20244;-64
2022/03/19 00:16:08;;;;;;;23.83;17.07;;;;;;;3.52;82.06;96554.69;5033784;28;20704;-65
2022/03/19 00:18:54;;;;;;;23.30;16.13;;;;;;;3.54;82.01;96548.91;5046101;28;20717;-65
2022/03/19 00:21:40;;;;;;;27.27;18.17;;;;;;;3.45;82.79;96540.31;5031058;28;20231;-64
2022/03/19 00:24:26;;;;;;;24.23;16.53;;;;;;;3.48;82.52;96540.34;5041604;28;20269;-64
2022/03/19 00:27:12;;;;;;;22.93;16.50;;;;;;;3.41;83.12;96537.59;5045812;28;20193;-64
2022/03/19 00:29:59;;;;;;;23.23;16.60;;;;;;;3.35;83.50;96546.41;5032841;28;20214;-64
2022/03/19 00:32:45;;;;;;;26.80;18.37;;;;;;;3.34;83.81;96537.50;5047972;28;20182;-64
2022/03/19 00:35:32;;;;;;;29.57;18.60;;;;;;;3.29;84.53;96545.19;5038816;28;20198;-64
2022/03/19 00:38:18;;;;;;;23.07;17.80;;;;;;;3.28;84.63;96538.22;5044221;28;20235;-65
2022/03/19 00:41:04;;;;;;;24.87;18.53;;;;;;;3.26;85.12;96535.09;5045657;28;20701;-65
2022/03/19 00:43:50;;;;;;;26.00;18.20;;;;;;;3.17;85.32;96531.94;5056575;28;20208;-65
2022/03/19 00:46:35;;;;;;;25.40;17.93;;;;;;;3.21;85.44;96540.84;5053437;28;20251;-64
2022/03/19 00:49:21;;;;;;;24.97;18.20;;;;;;;3.30;85.58;96534.00;5050215;28;20228;-65
2022/03/19 00:52:07;;;;;;;24.27;17.97;;;;;;;3.23;85.51;96527.75;5036295;28;20198;-65
2022/03/19 00:54:53;;;;;;;24.90;16.87;;;;;;;3.16;85.70;96509.56;5047825;28;20201;-64
2022/03/19 00:57:44;;;;;;;24.40;17.97;;;;;;;3.18;86.29;96518.06;5050561;28;20218;-65
2022/03/19 01:00:30;;;;;;;26.43;18.47;;;;;;;3.21;86.53;96517.31;5036630;28;20210;-64
2022/03/19 01:03:16;;;;;;;26.30;19.13;;;;;;;3.09;86.17;96560.00;5047477;28;20198;-65
2022/03/19 01:06:02;;;;;;;26.30;18.80;;;;;;;3.10;86.57;96513.75;5038238;28;20274;-64
2022/03/19 01:08:48;;;;;;;26.47;19.47;;;;;;;3.18;86.29;96512.66;5043471;28;20263;-64
2022/03/19 01:11:34;;;;;;;26.60;19.53;;;;;;;3.17;86.57;96503.00;5052035;28;20195;-65
2022/03/19 01:14:20;;;;;;;25.20;18.73;;;;;;;3.10;87.03;96511.06;5039934;28;20234;-65
2022/03/19 01:17:08;;;;;;;25.13;18.43;;;;;;;3.12;87.37;96511.44;5052006;28;20225;-65
2022/03/19 01:19:54;;;;;;;26.17;19.20;;;;;;;3.07;87.74;96511.00;5044559;28;20206;-64
2022/03/19 01:22:41;;;;;;;25.03;18.77;;;;;;;3.05;88.46;96502.50;5044662;28;20203;-64
2022/03/19 01:25:28;;;;;;;27.40;19.20;;;;;;;2.92;88.62;96501.97;5021454;28;20592;-65
2022/03/19 01:28:14;;;;;;;28.40;19.80;;;;;;;2.89;89.51;96493.81;5040118;28;20280;-64
2022/03/19 01:31:00;;;;;;;29.60;20.33;;;;;;;2.89;90.02;96512.72;5029502;28;20211;-64
2022/03/19 01:33:46;;;;;;;28.10;19.53;;;;;;;2.74;90.66;96482.13;5050636;28;20178;-64
2022/03/19 01:36:32;;;;;;;27.40;19.67;;;;;;;2.87;90.68;96486.09;5049562;28;20593;-65
2022/03/19 01:39:18;;;;;;;25.77;19.30;;;;;;;2.78;91.12;96479.47;5034907;28;20295;-65
2022/03/19 01:42:04;;;;;;;28.67;20.20;;;;;;;2.76;91.49;96471.72;5029732;28;20653;-65
2022/03/19 01:44:51;;;;;;;28.97;20.37;;;;;;;2.81;91.50;96467.91;5049752;28;20340;-64
2022/03/19 01:47:38;;;;;;;27.53;20.07;;;;;;;2.70;92.23;96458.94;5017127;28;20202;-64
2022/03/19 01:50:25;;;;;;;30.63;19.30;;;;;;;2.65;92.65;96454.63;5033835;28;20221;-65
2022/03/19 01:53:11;;;;;;;27.33;20.27;;;;;;;2.59;93.14;96458.81;5049847;28;20210;-64
2022/03/19 01:55:58;;;;;;;30.67;21.63;;;;;;;2.63;93.82;96459.63;5042393;28;20223;-64
2022/03/19 01:58:44;;;;;;;33.23;21.57;;;;;;;2.58;93.31;96469.97;5049755;28;20285;-65
2022/03/19 02:01:30;;;;;;;29.53;19.80;;;;;;;2.55;93.38;96466.06;5050468;28;20190;-64
2022/03/19 02:04:18;;;;;;;29.27;20.50;;;;;;;2.50;94.41;96450.22;5045212;28;20225;-64
2022/03/19 02:07:09;;;;;;;30.83;22.50;;;;;;;2.47;94.74;96440.19;5036167;28;20194;-65
2022/03/19 02:09:58;;;;;;;28.57;20.57;;;;;;;2.49;94.75;96452.13;5049788;28;20206;-65
2022/03/19 02:12:44;;;;;;;27.63;20.00;;;;;;;2.52;94.74;96456.03;5052527;28;20193;-64
2022/03/19 02:15:30;;;;;;;32.80;21.67;;;;;;;2.42;95.33;96449.38;5033622;28;20203;-65
2022/03/19 02:18:16;;;;;;;31.37;21.70;;;;;;;2.43;95.65;96445.53;5019398;28;20620;-65
2022/03/19 02:21:02;;;;;;;34.67;21.60;;;;;;;2.44;95.21;96444.38;5044872;28;20218;-65
2022/03/19 02:27:03;;;;;;;29.07;20.73;;;;;;;2.33;96.07;96446.19;5042634;28;20734;-64
2022/03/19 02:29:49;;;;;;;30.63;20.87;;;;;;;2.38;96.22;96445.84;5034475;28;20763;-64
2022/03/19 02:32:38;;;;;;;26.07;20.50;;;;;;;2.30;96.60;96449.59;5016074;28;20352;-65
2022/03/19 02:35:25;;;;;;;30.07;21.37;;;;;;;2.21;97.82;96429.44;5021309;28;20695;-64
2022/03/19 02:38:11;;;;;;;35.80;21.80;;;;;;;2.18;98.35;96432.88;5044028;28;20301;-64
2022/03/19 02:40:57;;;;;;;27.73;21.03;;;;;;;2.24;98.34;96440.28;5042028;28;20765;-64
2022/03/19 02:43:43;;;;;;;29.00;21.87;;;;;;;2.11;98.75;96452.44;5042676;28;20229;-65
2022/03/19 02:46:51;;;;;;;28.40;20.80;;;;;;;2.07;99.63;96430.03;5040194;28;20278;-65
2022/03/19 02:49:38;;;;;;;32.83;22.57;;;;;;;2.15;98.88;96441.69;5044679;28;20218;-65
2022/03/19 02:52:23;;;;;;;30.83;22.27;;;;;;;2.04;99.87;96441.56;5034437;28;20281;-64
2022/03/19 02:55:09;;;;;;;34.43;22.13;;;;;;;2.05;100.00;96443.09;5048222;28;20198;-64
2022/03/19 02:57:55;;;;;;;32.27;23.17;;;;;;;2.04;100.00;96435.38;5046969;28;20727;-64
2022/03/19 03:00:42;;;;;;;33.07;22.90;;;;;;;1.89;100.00;96431.72;5048646;28;20222;-64
2022/03/19 03:03:28;;;;;;;30.20;21.40;;;;;;;1.91;100.00;96428.66;5026821;28;20187;-65
2022/03/19 03:06:14;;;;;;;34.17;22.60;;;;;;;1.99;100.00;96439.19;5041166;28;20340;-65
2022/03/19 03:09:00;;;;;;;33.70;22.10;;;;;;;1.80;100.00;96431.19;5041298;28;20182;-65
2022/03/19 03:11:47;;;;;;;31.67;23.83;;;;;;;1.91;100.00;96436.75;5050920;28;20318;-64
2022/03/19 03:14:33;;;;;;;30.53;22.23;;;;;;;1.84;100.00;96444.72;5035023;28;20198;-64
2022/03/19 03:17:19;;;;;;;34.10;23.10;;;;;;;1.77;100.00;96440.00;5036379;28;20279;-65
2022/03/19 03:20:07;;;;;;;29.50;21.50;;;;;;;1.77;100.00;96426.53;5047358;28;20248;-64
2022/03/19 03:22:52;;;;;;;30.03;21.63;;;;;;;1.73;100.00;96430.34;5047032;28;20553;-64
2022/03/19 03:25:38;;;;;;;32.40;23.17;;;;;;;1.61;100.00;96427.84;5038206;28;20293;-64
2022/03/19 03:28:24;;;;;;;30.30;22.17;;;;;;;1.68;100.00;96423.31;5044775;28;20222;-64
2022/03/19 03:31:10;;;;;;;31.83;23.07;;;;;;;1.68;100.00;96422.56;5029381;28;20694;-65
2022/03/19 03:33:57;;;;;;;33.67;22.27;;;;;;;1.61;100.00;96422.47;5034746;28;20652;-64
2022/03/19 03:36:42;;;;;;;30.97;23.23;;;;;;;1.71;100.00;96408.38;5039230;28;20214;-65
2022/03/19 03:39:28;;;;;;;30.20;23.13;;;;;;;1.64;100.00;96411.75;5030512;28;20539;-64
2022/03/19 03:42:15;;;;;;;34.43;23.77;;;;;;;1.59;100.00;96408.56;5047058;28;20194;-64
2022/03/19 03:45:01;;;;;;;34.73;24.03;;;;;;;1.59;100.00;96403.97;5050558;28;20637;-64
2022/03/19 03:47:48;;;;;;;35.27;25.80;;;;;;;1.55;100.00;96413.13;5030462;28;20517;-65
2022/03/19 03:50:35;;;;;;;39.57;27.77;;;;;;;1.54;100.00;96412.38;5048533;28;20211;-64
2022/03/19 03:53:24;;;;;;;39.33;26.50;;;;;;;1.55;100.00;96416.59;5046280;28;20210;-64
2022/03/19 03:56:10;;;;;;;41.17;28.53;;;;;;;1.52;100.00;96419.25;5034484;28;20205;-64
2022/03/19 03:58:56;;;;;;;40.47;28.07;;;;;;;1.53;100.00;96399.28;5041239;28;20658;-64
2022/03/19 04:01:42;;;;;;;41.33;28.87;;;;;;;1.49;100.00;96399.22;5048238;28;20197;-64
2022/03/19 04:04:27;;;;;;;45.60;30.07;;;;;;;1.54;100.00;96401.59;5046610;28;20229;-65
2022/03/19 04:07:13;;;;;;;42.00;29.10;;;;;;;1.44;100.00;96404.91;5048021;28;20198;-64
2022/03/19 04:09:59;;;;;;;48.73;30.40;;;;;;;1.33;100.00;96401.25;5041377;28;20249;-64
2022/03/19 04:12:45;;;;;;;47.13;32.00;;;;;;;1.42;100.00;96392.94;5047460;28;20193;-64
2022/03/19 04:15:31;;;;;;;50.30;31.40;;;;;;;1.38;100.00;96389.41;5047404;28;20256;-65
2022/03/19 04:18:17;;;;;;;53.33;34.33;;;;;;;1.47;100.00;96400.72;5052187;28;20253;-64
2022/03/19 04:21:03;;;;;;;47.60;32.10;;;;;;;1.50;100.00;96395.38;5036446;28;20218;-65
2022/03/19 04:23:49;;;;;;;54.03;34.93;;;;;;;1.39;100.00;96397.16;5051334;28;20259;-65
2022/03/19 04:26:35;;;;;;;51.43;33.57;;;;;;;1.27;100.00;96391.97;5039757;28;20207;-64
2022/03/19 04:29:21;;;;;;;50.73;32.90;;;;;;;1.27;100.00;96384.63;5036402;28;20268;-64
2022/03/19 04:32:07;;;;;;;51.33;34.80;;;;;;;1.31;100.00;96397.41;5055887;28;20201;-65
2022/03/19 04:34:53;;;;;;;51.40;36.47;;;;;;;1.38;100.00;96381.31;5043592;28;20186;-65
2022/03/19 04:37:39;;;;;;;56.27;36.70;;;;;;;1.35;100.00;96393.59;5049671;28;20218;-65
2022/03/19 04:40:25;;;;;;;52.83;35.90;;;;;;;1.29;100.00;96389.66;5052329;28;20306;-64
2022/03/19 04:43:11;;;;;;;55.80;35.37;;;;;;;1.27;100.00;96383.09;5050144;28;20488;-65
2022/03/19 04:45:57;;;;;;;59.57;37.63;;;;;;;1.27;100.00;96390.03;5040362;28;20201;-65
2022/03/19 04:48:45;;;;;;;57.50;37.17;;;;;;;1.12;100.00;96371.34;5042836;28;20194;-65
2022/03/19 04:51:37;;;;;;;61.70;37.20;;;;;;;1.29;100.00;96370.81;5050394;28;20657;-65
2022/03/19 04:54:23;;;;;;;54.43;36.33;;;;;;;1.27;100.00;96384.63;5047334;28;20633;-64
2022/03/19 04:57:09;;;;;;;57.60;37.80;;;;;;;1.19;100.00;96388.38;5029002;28;20222;-65
2022/03/19 04:59:57;;;;;;;58.60;36.10;;;;;;;1.08;100.00;96384.75;5045612;28;20221;-64
2022/03/19 05:02:44;;;;;;;58.97;39.87;;;;;;;1.24;100.00;96387.28;5051555;28;20722;-64
2022/03/19 05:05:30;;;;;;;58.47;38.33;;;;;;;1.15;100.00;96378.69;5052565;28;20277;-65
2022/03/19 05:08:17;;;;;;;56.27;37.80;;;;;;;1.23;100.00;96380.34;5040905;28;20245;-64
2022/03/19 05:11:17;;;;;;;58.70;37.37;;;;;;;1.23;100.00;96381.13;5044394;28;20210;-64
2022/03/19 05:14:04;;;;;;;60.17;37.67;;;;;;;1.02;100.00;96361.94;5032532;28;20190;-64
2022/03/19 05:16:50;;;;;;;63.00;39.07;;;;;;;0.96;100.00;96378.75;5049404;28;20241;-64
2022/03/19 05:19:36;;;;;;;56.67;37.37;;;;;;;1.08;100.00;96367.81;5048731;28;20264;-65
2022/03/19 05:22:21;;;;;;;60.30;38.90;;;;;;;0.91;100.00;96363.69;5034653;28;20195;-64
2022/03/19 05:25:08;;;;;;;62.03;38.67;;;;;;;0.93;100.00;96361.41;5034736;28;20202;-64
2022/03/19 05:27:55;;;;;;;57.80;39.20;;;;;;;0.92;100.00;96356.38;5042410;28;20267;-64
2022/03/19 05:30:41;;;;;;;59.53;37.13;;;;;;;0.99;100.00;96354.59;5036944;28;20297;-64
2022/03/19 05:36:51;;;;;;;58.60;37.30;;;;;;;0.95;100.00;96350.31;4986971;28;20224;-64
2022/03/19 05:39:37;;;;;;;54.57;38.03;;;;;;;1.03;100.00;96360.03;4994611;28;20227;-65
2022/03/19 05:42:24;;;;;;;57.33;37.40;;;;;;;0.97;100.00;96356.09;5026562;28;20191;-64
2022/03/19 05:45:13;;;;;;;55.93;37.10;;;;;;;1.02;100.00;96350.41;5031942;28;20194;-65
2022/03/19 05:47:59;;;;;;;62.50;38.40;;;;;;;0.99;100.00;96369.97;5017114;28;20718;-65
2022/03/19 05:50:45;;;;;;;59.80;37.70;;;;;;;1.02;100.00;96343.13;5047765;28;20225;-64
2022/03/19 05:53:30;;;;;;;55.23;35.80;;;;;;;1.05;100.00;96347.00;5046612;28;20194;-64
2022/03/19 05:56:17;;;;;;;58.00;38.20;;;;;;;1.03;100.00;96338.53;5034216;28;20202;-65
2022/03/19 05:59:04;;;;;;;52.80;35.10;;;;;;;1.07;100.00;96348.19;5043576;28;20202;-64
2022/03/19 06:01:50;;;;;;;56.97;37.70;;;;;;;1.09;100.00;96345.13;5025318;28;20233;-64
2022/03/19 06:04:38;;;;;;;61.63;37.93;;;;;;;1.24;100.00;96355.75;5046910;28;20205;-65
2022/03/19 06:07:23;;;;;;;57.50;37.63;;;;;;;1.24;100.00;96350.38;5044516;28;20202;-65
2022/03/19 06:10:10;;;;;;;56.50;37.00;;;;;;;1.16;100.00;96340.66;5044892;28;20229;-64
2022/03/19 06:12:56;;;;;;;61.50;37.63;;;;;;;1.20;100.00;96349.53;5037995;28;20194;-64
2022/03/19 06:15:41;;;;;;;56.27;36.23;;;;;;;1.19;100.00;96348.00;5037159;28;20226;-65
2022/03/19 06:18:28;;;;;;;59.30;35.07;;;;;;;1.33;100.00;96346.66;5047983;28;20226;-64
2022/03/19 06:21:14;;;;;;;58.27;37.70;;;;;;;1.38;100.00;96343.66;5041140;28;20229;-63
2022/03/19 06:23:59;;;;;;;60.70;38.90;;;;;;;1.41;100.00;96335.63;5033469;28;20639;-64
2022/03/19 06:26:45;;;;;;;55.00;36.37;;;;;;;1.47;100.00;96347.66;5042484;28;20526;-64
2022/03/19 06:29:31;;;;;;;57.37;37.83;;;;;;;1.52;100.00;96339.25;5048616;28;20860;-63
2022/03/19 06:32:20;;;;;;;59.70;37.80;;;;;;;1.59;100.00;96328.59;5028507;28;20276;-63
2022/03/19 06:35:09;;;;;;;54.77;37.23;;;;;;;1.76;100.00;96329.97;5024321;28;20368;-64
2022/03/19 06:37:55;;;;;;;63.97;38.73;;;;;;;1.79;100.00;96332.69;5033600;28;20367;-64
2022/03/19 06:40:41;;;;;;;59.47;38.73;;;;;;;1.91;100.00;96339.78;5048988;28;20283;-63
2022/03/19 06:43:27;;;;;;;60.80;37.00;;;;;;;2.02;100.00;96333.34;5045092;28;20443;-64
2022/03/19 06:46:13;;;;;;;54.93;36.57;;;;;;;2.13;100.00;96317.31;5050321;28;20194;-64
2022/03/19 06:48:59;;;;;;;59.13;38.13;;;;;;;2.33;100.00;96324.09;5042484;28;20668;-64
2022/03/19 06:51:45;;;;;;;58.23;36.83;;;;;;;2.55;100.00;96333.16;5043007;28;20206;-64
2022/03/19 06:54:30;;;;;;;57.97;37.77;;;;;;;2.83;100.00;96325.34;5031655;28;20270;-65
2022/03/19 06:57:16;;;;;;;57.20;38.27;;;;;;;2.83;100.00;96326.13;5039886;28;20209;-63
2022/03/19 07:00:03;;;;;;;57.27;37.83;;;;;;;2.89;100.00;96329.25;5029085;28;20211;-64
2022/03/19 07:02:54;;;;;;;57.43;35.73;;;;;;;3.11;100.00;96322.88;5030302;28;20204;-63
2022/03/19 07:05:41;;;;;;;58.67;37.63;;;;;;;3.14;100.00;96324.84;5041387;28;20202;-64
2022/03/19 07:08:27;;;;;;;55.43;37.37;;;;;;;3.12;100.00;96313.63;5047285;28;20194;-63
2022/03/19 07:11:21;;;;;;;54.50;34.87;;;;;;;3.19;100.00;96311.75;5050385;28;20593;-64
2022/03/19 07:14:07;;;;;;;56.43;35.77;;;;;;;3.15;100.00;96318.28;5046931;28;20312;-64
2022/03/19 07:16:55;;;;;;;53.13;36.33;;;;;;;3.02;100.00;96308.94;5027399;28;20708;-65
2022/03/19 07:19:41;;;;;;;53.90;35.93;;;;;;;3.16;100.00;96306.31;5051913;28;20330;-64
2022/03/19 07:22:27;;;;;;;54.43;35.03;;;;;;;3.13;100.00;96302.47;5044317;28;20676;-64
2022/03/19 07:25:14;;;;;;;53.40;36.57;;;;;;;3.24;100.00;96308.69;5046544;28;20199;-64
2022/03/19 07:28:03;;;;;;;52.47;34.70;;;;;;;3.36;99.31;96308.41;5045631;28;20209;-64
2022/03/19 07:30:49;;;;;;;53.50;37.00;;;;;;;3.46;97.96;96301.53;5045812;28;20214;-64
2022/03/19 07:33:35;;;;;;;50.60;35.40;;;;;;;3.57;97.86;96299.66;5060466;28;20285;-64
2022/03/19 07:36:21;;;;;;;50.23;34.67;;;;;;;3.56;97.15;96292.72;5055112;28;20196;-64
2022/03/19 07:39:07;;;;;;;49.27;34.00;;;;;;;3.71;96.46;96288.91;5080059;28;20250;-63
2022/03/19 07:41:55;;;;;;;49.77;35.87;;;;;;;3.77;94.63;96287.41;5097450;28;20653;-64
2022/03/19 07:44:46;;;;;;;52.33;36.03;;;;;;;3.87;95.79;96300.19;5105780;28;20608;-64
2022/03/19 07:47:33;;;;;;;55.13;36.73;;;;;;;3.94;94.44;96300.22;5089634;28;20193;-64
2022/03/19 07:50:19;;;;;;;49.97;35.03;;;;;;;4.10;93.66;96292.56;5100298;28;20220;-64
2022/03/19 07:53:06;;;;;;;51.27;34.77;;;;;;;4.23;91.97;96295.69;5064892;28;20201;-64
2022/03/19 07:55:53;;;;;;;49.13;34.53;;;;;;;4.37;90.42;96298.44;5088876;28;20569;-64
2022/03/19 07:58:40;;;;;;;49.23;34.27;;;;;;;4.35;89.65;96279.88;5080748;28;20200;-64
2022/03/19 08:01:26;;;;;;;48.80;33.30;;;;;;;4.63;89.21;96290.72;5086972;28;20205;-64
2022/03/19 08:04:12;;;;;;;48.60;33.67;;;;;;;4.80;86.36;96286.53;5089066;28;20200;-64
2022/03/19 08:06:58;;;;;;;57.73;34.90;;;;;;;4.69;85.87;96281.09;5098984;28;20207;-65
2022/03/19 08:09:44;;;;;;;47.97;32.33;;;;;;;4.73;84.59;96278.41;5089404;28;20216;-64
2022/03/19 08:12:31;;;;;;;45.70;31.93;;;;;;;4.87;83.53;96281.88;5099025;28;20277;-64
2022/03/19 08:15:17;;;;;;;49.90;35.40;;;;;;;5.08;82.78;96285.72;5095234;28;20348;-65
2022/03/19 08:18:04;;;;;;;46.43;33.03;;;;;;;5.30;80.60;96279.91;5084931;28;20279;-65
2022/03/19 08:20:50;;;;;;;54.17;32.97;;;;;;;5.36;79.42;96272.94;5093337;28;20683;-66
2022/03/19 08:23:36;;;;;;;48.87;32.57;;;;;;;5.68;78.09;96267.44;5077470;28;20182;-65
2022/03/19 08:26:22;;;;;;;46.67;32.00;;;;;;;6.03;77.87;96267.34;5050175;28;20670;-65
2022/03/19 08:29:08;;;;;;;44.60;30.33;;;;;;;5.96;75.03;96265.44;5078887;28;20212;-65
2022/03/19 08:31:55;;;;;;;47.50;32.80;;;;;;;6.08;76.05;96261.50;5073736;28;20682;-65
2022/03/19 08:34:43;;;;;;;45.47;31.30;;;;;;;6.33;74.11;96251.28;5079227;28;20317;-66
2022/03/19 08:37:29;;;;;;;42.87;31.20;;;;;;;6.30;72.72;96256.72;5084826;28;20200;-65
2022/03/19 08:40:19;;;;;;;42.23;29.83;;;;;;;6.46;71.44;96257.81;5053688;28;20682;-65
2022/03/19 08:43:05;;;;;;;46.47;32.33;;;;;;;6.26;71.42;96264.13;5050482;28;20201;-66
2022/03/19 08:45:51;;;;;;;40.77;30.17;;;;;;;6.23;71.96;96237.81;5055868;28;20296;-65
2022/03/19 08:48:37;;;;;;;42.57;31.03;;;;;;;6.06;71.74;96253.75;5076717;28;20206;-64
2022/03/19 08:51:41;;;;;;;45.80;30.83;;;;;;;6.26;71.65;96237.78;5077647;28;20292;-65
2022/03/19 08:54:27;;;;;;;44.03;30.60;;;;;;;6.31;70.49;96234.66;5069692;28;20208;-65
2022/03/19 08:57:14;;;;;;;41.77;28.97;;;;;;;6.42;69.14;96238.06;5072994;28;20506;-65
2022/03/19 09:00:01;;;;;;;37.77;29.23;;;;;;;6.83;68.94;96228.06;5072479;28;20308;-65
2022/03/19 09:02:47;;;;;;;39.60;28.47;;;;;;;6.82;68.39;96228.47;5090803;28;20271;-66
2022/03/19 09:05:33;;;;;;;43.93;28.77;;;;;;;7.00;67.37;96229.88;5081856;28;20216;-66
2022/03/19 09:08:18;;;;;;;39.57;28.60;;;;;;;7.53;66.88;96228.56;5077033;28;20194;-65
2022/03/19 09:11:04;;;;;;;42.03;28.73;;;;;;;7.97;68.68;96225.72;5054091;28;20217;-66
2022/03/19 09:13:51;;;;;;;40.77;27.50;;;;;;;7.07;63.14;96224.38;5067033;28;20276;-65
2022/03/19 09:16:37;;;;;;;42.10;28.17;;;;;;;6.87;65.95;96228.03;5090762;28;20189;-65
2022/03/19 09:19:27;;;;;;;37.30;28.30;;;;;;;7.54;65.38;96214.56;5061086;28;20576;-65
2022/03/19 09:22:12;;;;;;;41.23;29.70;;;;;;;7.34;65.66;96217.13;5069768;28;20216;-65
2022/03/19 09:24:59;;;;;;;37.47;27.43;;;;;;;7.65;63.27;96209.81;5071479;28;20196;-65
2022/03/19 09:27:44;;;;;;;36.67;26.57;;;;;;;7.68;63.13;96200.06;5077892;28;20276;-65
2022/03/19 09:30:30;;;;;;;38.67;27.30;;;;;;;8.21;60.07;96187.28;5075305;28;20301;-65
2022/03/19 09:33:17;;;;;;;44.30;31.60;;;;;;;8.18;59.00;96179.19;5062242;28;20198;-65
2022/03/19 09:36:03;;;;;;;38.43;26.07;;;;;;;8.17;59.51;96180.38;5072578;28;20196;-65
2022/03/19 09:38:49;;;;;;;35.77;25.83;;;;;;;7.86;57.99;96173.38;5055819;28;20627;-65
2022/03/19 09:41:35;;;;;;;35.53;25.83;;;;;;;8.62;58.03;96183.63;5077238;28;20189;-63
2022/03/19 09:44:25;;;;;;;37.00;26.73;;;;;;;9.08;58.44;96172.75;5053769;28;20233;-63
2022/03/19 09:47:13;;;;;;;33.77;24.70;;;;;;;8.84;60.32;96165.75;5071426;28;20189;-63
2022/03/19 09:49:58;;;;;;;34.07;25.50;;;;;;;8.95;55.72;96156.22;5072975;28;20213;-64
2022/03/19 09:52:44;;;;;;;35.60;24.90;;;;;;;8.35;56.21;96156.41;5067682;28;20697;-62
2022/03/19 09:55:32;;;;;;;33.90;24.53;;;;;;;9.38;56.31;96156.97;5075274;28;20209;-62
2022/03/19 09:58:18;;;;;;;34.87;25.80;;;;;;;8.66;54.73;96154.38;5089031;28;20255;-62
2022/03/19 10:01:05;;;;;;;36.40;24.50;;;;;;;9.07;54.93;96154.84;5076372;28;20690;-63
2022/03/19 10:03:51;;;;;;;33.07;23.33;;;;;;;8.90;56.74;96159.41;5051758;28;20191;-63
2022/03/19 10:10:00;;;;;;;35.60;24.23;;;;;;;8.93;54.47;96142.22;5075290;28;20221;-63
2022/03/19 10:12:46;;;;;;;34.77;22.93;;;;;;;8.98;52.80;96136.28;5069969;28;20193;-63
2022/03/19 10:15:32;;;;;;;30.67;21.67;;;;;;;8.97;51.85;96139.44;5068911;28;20212;-63
2022/03/19 10:18:18;;;;;;;30.50;21.00;;;;;;;8.88;54.30;96139.19;5073251;28;20201;-63
2022/03/19 10:21:14;;;;;;;29.30;21.80;;;;;;;8.95;53.08;96131.69;5063306;28;20700;-63
2022/03/19 10:24:01;;;;;;;29.67;21.53;;;;;;;8.82;51.35;96125.31;5068945;28;20560;-63
2022/03/19 10:26:48;;;;;;;29.93;20.80;;;;;;;9.63;52.20;96119.06;5066240;28;20194;-63
2022/03/19 10:29:37;;;;;;;30.27;22.30;;;;;;;8.39;52.77;96108.91;5070302;28;20244;-63
2022/03/19 10:32:27;;;;;;;29.70;21.60;;;;;;;8.63;53.57;96111.63;5070810;28;20204;-63
2022/03/19 10:35:33;;;;;;;28.73;20.50;;;;;;;9.29;52.79;96104.19;5075978;28;20237;-63
2022/03/19 10:38:22;;;;;;;30.93;21.17;;;;;;;9.27;50.31;96107.34;5062793;28;20202;-63
2022/03/19 10:41:08;;;;;;;29.07;20.53;;;;;;;8.91;50.69;96097.53;5082615;28;20410;-63
2022/03/19 10:43:54;;;;;;;29.03;21.43;;;;;;;8.91;51.40;96086.63;5087910;28;20318;-63
2022/03/19 10:46:48;;;;;;;26.10;20.40;;;;;;;9.31;51.92;96078.06;5084328;28;20284;-63
2022/03/19 10:49:34;;;;;;;27.13;21.60;;;;;;;9.76;49.66;96079.03;5061244;28;20221;-63
2022/03/19 10:52:25;;;;;;;27.53;21.00;;;;;;;10.03;50.90;96067.16;5070302;28;20232;-63
2022/03/19 10:55:11;;;;;;;31.40;20.80;;;;;;;9.27;48.69;96071.13;5056874;28;20279;-62
2022/03/19 10:57:57;;;;;;;31.00;21.50;;;;;;;8.58;50.82;96066.59;5076391;28;20190;-63
2022/03/19 11:00:48;;;;;;;30.20;20.33;;;;;;;9.07;50.64;96059.44;5078410;28;20202;-63
2022/03/19 11:03:39;;;;;;;28.37;21.17;;;;;;;9.94;51.86;96061.50;5069153;28;20186;-63
2022/03/19 11:06:28;;;;;;;28.63;19.57;;;;;;;9.61;48.36;96053.25;5068461;28;20705;-63
2022/03/19 11:09:19;;;;;;;27.83;20.33;;;;;;;10.15;48.92;96047.38;5060614;28;20220;-62
2022/03/19 11:12:09;;;;;;;31.93;21.73;;;;;;;11.13;48.01;96049.56;5071889;28;20193;-62
2022/03/19 11:14:58;;;;;;;25.93;20.33;;;;;;;10.03;47.01;96037.13;5080155;28;20588;-62
2022/03/19 11:17:47;;;;;;;33.07;19.67;;;;;;;9.76;46.36;96042.78;5055483;28;20240;-65
2022/03/19 11:20:34;;;;;;;29.07;20.27;;;;;;;9.01;46.34;96014.81;5069995;28;20201;-62
2022/03/19 11:23:28;;;;;;;31.23;18.83;;;;;;;8.76;48.30;96020.72;5066391;28;20655;-64
2022/03/19 11:26:21;;;;;;;30.63;19.23;;;;;;;9.14;46.09;96018.44;5084203;28;20281;-62
2022/03/19 11:29:07;;;;;;;25.40;19.27;;;;;;;8.94;46.17;96013.00;5063277;28;20647;-63
2022/03/19 11:31:58;;;;;;;28.30;19.07;;;;;;;8.76;45.80;96012.56;5069329;28;20193;-64
2022/03/19 11:34:47;;;;;;;27.20;18.00;;;;;;;9.05;45.77;96004.59;5070893;28;20225;-62
2022/03/19 11:38:02;;;;;;;24.10;17.33;;;;;;;9.07;45.07;96011.16;5079643;28;20683;-62
2022/03/19 11:40:54;;;;;;;23.83;18.23;;;;;;;8.99;45.25;95995.38;5078252;28;20223;-63
2022/03/19 11:43:40;;;;;;;27.57;18.97;;;;;;;8.97;44.58;95984.13;5068774;28;20259;-62
2022/03/19 11:46:26;;;;;;;26.73;17.37;;;;;;;9.09;44.76;95984.28;5083438;28;20198;-62
2022/03/19 11:49:12;;;;;;;23.97;17.80;;;;;;;9.07;44.09;95975.75;5074490;28;20201;-64
2022/03/19 11:51:58;;;;;;;26.20;18.53;;;;;;;9.72;44.89;95982.84;5070280;28;20255;-62
2022/03/19 11:55:05;;;;;;;24.07;18.70;;;;;;;9.61;44.04;95963.25;5070265;28;20255;-62
2022/03/19 11:57:56;;;;;;;23.23;18.40;;;;;;;9.41;43.46;95959.81;5075317;28;20197;-62
2022/03/19 12:00:42;;;;;;;32.07;18.13;;;;;;;9.88;43.13;95964.94;5069935;28;20701;-62
2022/03/19 12:03:28;;;;;;;25.67;17.73;;;;;;;9.55;42.39;95956.00;5073762;28;20200;-62
2022/03/19 12:06:29;;;;;;;22.87;16.40;;;;;;;9.56;42.70;95949.34;5071394;28;20192;-62
2022/03/19 12:09:15;;;;;;;26.57;17.80;;;;;;;9.28;42.07;95950.75;5036229;28;20258;-61
2022/03/19 12:12:13;;;;;;;22.17;17.70;;;;;;;9.21;42.63;95941.97;5077776;28;20200;-62
2022/03/19 12:14:59;;;;;;;21.70;16.27;;;;;;;9.31;41.39;95936.28;5068412;28;20198;-62
2022/03/19 12:17:45;;;;;;;23.47;16.90;;;;;;;9.11;42.06;95921.16;5087767;28;20200;-61
2022/03/19 12:20:31;;;;;;;22.63;15.83;;;;;;;9.32;41.23;95907.06;5068570;28;20607;-62
2022/03/19 12:23:18;;;;;;;22.33;17.33;;;;;;;9.46;41.50;95915.69;5079318;28;20692;-62
2022/03/19 12:26:05;;;;;;;22.23;16.30;;;;;;;9.19;41.08;95908.91;5081368;28;20278;-62
2022/03/19 12:29:03;;;;;;;24.70;17.37;;;;;;;9.18;41.45;95902.69;5084864;28;20272;-62
2022/03/19 12:31:52;;;;;;;22.07;17.97;;;;;;;9.15;41.87;95898.09;5072447;28;20182;-62
2022/03/19 12:34:39;;;;;;;23.77;18.37;;;;;;;9.20;42.14;95888.63;5081765;28;20193;-62
2022/03/19 12:37:24;;;;;;;25.03;16.80;;;;;;;9.25;40.71;95890.84;5074289;28;20190;-62
2022/03/19 12:40:17;;;;;;;23.20;17.30;;;;;;;9.26;41.31;95893.19;5064152;28;20213;-62
2022/03/19 12:43:03;;;;;;;29.73;19.23;;;;;;;9.00;41.45;95879.75;5074720;28;20189;-62
2022/03/19 12:45:50;;;;;;;27.83;17.73;;;;;;;9.36;41.37;95880.47;5091428;28;20185;-62
2022/03/19 12:48:39;;;;;;;27.23;19.30;;;;;;;9.32;41.46;95879.78;5084211;28;20666;-62
2022/03/19 12:51:27;;;;;;;23.83;18.27;;;;;;;9.30;42.70;95876.72;5084536;28;20216;-61
2022/03/19 12:54:30;;;;;;;27.67;19.23;;;;;;;9.09;42.00;95861.63;5072587;28;20288;-62
2022/03/19 12:57:25;;;;;;;26.77;17.97;;;;;;;9.03;41.31;95857.09;5069131;28;20207;-61
2022/03/19 13:00:11;;;;;;;24.27;18.80;;;;;;;9.29;42.80;95870.50;5074935;28;20221;-61
2022/03/19 13:02:57;;;;;;;28.63;18.97;;;;;;;9.06;41.24;95854.28;5083430;28;20189;-61
2022/03/19 13:05:50;;;;;;;29.07;19.80;;;;;;;9.02;40.53;95850.91;5055506;28;20280;-62